Terminal Aerodrome Forecast
Issued by NWS

Home | Current Version | Previous Version | Text Only | Print | Product List | Glossary Off
Versions: 1 2 3 4 5 6 7 8 9 10 11 12 13 14 15 16

000
FTUS43 KICT 260200 AAA
TAFSLN
TAF AMD
KSLN 260203Z 2602/2624 14008KT P6SM VCTS BKN060CB OVC090
      TEMPO 2602/2606 VRB25KT 5SM TSRA BKN050CB
     FM260700 09006KT P6SM BKN100
     FM261500 14007KT P6SM SCT120
     FM261800 17010KT P6SM FEW250=

USA.gov is the U.S. government's official web portal to all federal, state and local government web resources and services.